NWK1732 YPPH-YPKA
Flight info
| Callsign | NWK1732 |
|---|---|
| Flight time | 1h 46m |
| Altitude | 37000 |
| Route | PH Y15 GUGRA Z55 KA |
| Aircraft | A320/M-SDE3FGHIRWY/LB1 |
Departure
| Time | 2026-04-28 05:12 |
|---|---|
| Airport | Perth International Airport (YPPH) |
Arrival
| Time | 2026-04-28 06:58 |
|---|---|
| Airport | Karratha Airport (YPKA) |
| Time | Latitude | Longitude | Altitude | Speed | Heading |
|---|---|---|---|---|---|
| 2026-04-28 04:19 | -31.93340 | 115.96213 | 68 ft | 0 kts | 284° |
| 2026-04-28 04:20 | -31.93337 | 115.96201 | 68 ft | 0 kts | 284° |
| 2026-04-28 04:20 | -31.93340 | 115.96213 | 68 ft | 0 kts | 284° |
| 2026-04-28 04:21 | -31.93337 | 115.96201 | 68 ft | 0 kts | 284° |
| 2026-04-28 04:21 | -31.93340 | 115.96213 | 68 ft | 0 kts | 284° |
| 2026-04-28 05:01 | -31.93345 | 115.96233 | 61 ft | 4 kts | 293° |
| 2026-04-28 05:01 | -31.93358 | 115.96260 | 62 ft | 4 kts | 313° |
| 2026-04-28 05:02 | -31.93373 | 115.96275 | 63 ft | 1 kts | 324° |
| 2026-04-28 05:02 | -31.93375 | 115.96277 | 63 ft | 0 kts | 324° |
| 2026-04-28 05:05 | -31.93366 | 115.96274 | 65 ft | 2 kts | 346° |
| 2026-04-28 05:06 | -31.93344 | 115.96281 | 60 ft | 4 kts | 25° |
| 2026-04-28 05:06 | -31.93327 | 115.96297 | 66 ft | 6 kts | 41° |
| 2026-04-28 05:06 | -31.93286 | 115.96325 | 68 ft | 8 kts | 19° |
| 2026-04-28 05:06 | -31.93225 | 115.96328 | 65 ft | 10 kts | 359° |
| 2026-04-28 05:07 | -31.93172 | 115.96334 | 65 ft | 8 kts | 16° |
| 2026-04-28 05:07 | -31.93121 | 115.96373 | 63 ft | 10 kts | 45° |
| 2026-04-28 05:07 | -31.93069 | 115.96439 | 67 ft | 12 kts | 48° |
| 2026-04-28 05:07 | -31.93012 | 115.96514 | 63 ft | 7 kts | 47° |
| 2026-04-28 05:08 | -31.92973 | 115.96561 | 64 ft | 9 kts | 44° |
| 2026-04-28 05:08 | -31.92909 | 115.96594 | 64 ft | 11 kts | 13° |
| 2026-04-28 05:08 | -31.92857 | 115.96623 | 65 ft | 7 kts | 47° |
| 2026-04-28 05:08 | -31.92845 | 115.96686 | 68 ft | 9 kts | 99° |
| 2026-04-28 05:09 | -31.92852 | 115.96718 | 63 ft | 0 kts | 107° |
| 2026-04-28 05:10 | -31.92853 | 115.96718 | 63 ft | 0 kts | 107° |
| 2026-04-28 05:10 | -31.92855 | 115.96730 | 66 ft | 2 kts | 105° |
| 2026-04-28 05:10 | -31.92861 | 115.96757 | 69 ft | 4 kts | 105° |
| 2026-04-28 05:10 | -31.92872 | 115.96799 | 65 ft | 6 kts | 115° |
| 2026-04-28 05:11 | -31.92920 | 115.96828 | 62 ft | 10 kts | 183° |
| 2026-04-28 05:11 | -31.93023 | 115.96799 | 63 ft | 32 kts | 194° |
| 2026-04-28 05:11 | -31.93477 | 115.96667 | 60 ft | 99 kts | 194° |
| 2026-04-28 05:11 | -31.94320 | 115.96429 | 70 ft | 148 kts | 192° |
| 2026-04-28 05:12 | -31.95345 | 115.96126 | 530 ft | 151 kts | 191° |
| 2026-04-28 05:12 | -31.96373 | 115.95824 | 1076 ft | 153 kts | 191° |
| 2026-04-28 05:12 | -31.97417 | 115.95520 | 1624 ft | 155 kts | 188° |
| 2026-04-28 05:12 | -31.98497 | 115.95207 | 1961 ft | 169 kts | 188° |
| 2026-04-28 05:13 | -31.99717 | 115.94863 | 2176 ft | 191 kts | 189° |
| 2026-04-28 05:13 | -32.01092 | 115.94463 | 2412 ft | 217 kts | 194° |
| 2026-04-28 05:13 | -32.02419 | 115.93446 | 2715 ft | 246 kts | 232° |
| 2026-04-28 05:13 | -32.03009 | 115.91480 | 3196 ft | 268 kts | 268° |
| 2026-04-28 05:14 | -32.02855 | 115.89253 | 3989 ft | 276 kts | 281° |
| 2026-04-28 05:14 | -32.02433 | 115.87025 | 4707 ft | 282 kts | 285° |
| 2026-04-28 05:14 | -32.01956 | 115.84782 | 4988 ft | 283 kts | 285° |
| 2026-04-28 05:14 | -32.01505 | 115.82510 | 5780 ft | 284 kts | 283° |
| 2026-04-28 05:15 | -32.00911 | 115.80322 | 6794 ft | 279 kts | 300° |
| 2026-04-28 05:15 | -31.99705 | 115.78567 | 7704 ft | 277 kts | 322° |
| 2026-04-28 05:15 | -31.98005 | 115.77506 | 8562 ft | 280 kts | 344° |
| 2026-04-28 05:15 | -31.96061 | 115.77307 | 9347 ft | 286 kts | 2° |
| 2026-04-28 05:16 | -31.94064 | 115.77491 | 10139 ft | 290 kts | 2° |
| 2026-04-28 05:16 | -31.91983 | 115.77680 | 10488 ft | 312 kts | 2° |
| 2026-04-28 05:16 | -31.89728 | 115.77879 | 10729 ft | 335 kts | 2° |
| 2026-04-28 05:17 | -31.84859 | 115.78304 | 11585 ft | 358 kts | 2° |
| 2026-04-28 05:17 | -31.82369 | 115.78524 | 12252 ft | 362 kts | 2° |
| 2026-04-28 05:17 | -31.79848 | 115.78748 | 12916 ft | 365 kts | 2° |
| 2026-04-28 05:17 | -31.77307 | 115.78974 | 13597 ft | 368 kts | 2° |
| 2026-04-28 05:18 | -31.74746 | 115.79198 | 14206 ft | 371 kts | 2° |
| 2026-04-28 05:18 | -31.72193 | 115.79417 | 14776 ft | 373 kts | 2° |
| 2026-04-28 05:18 | -31.69590 | 115.79636 | 15334 ft | 377 kts | 2° |
| 2026-04-28 05:18 | -31.66934 | 115.79857 | 15900 ft | 380 kts | 2° |
| 2026-04-28 05:19 | -31.64318 | 115.80077 | 16458 ft | 383 kts | 2° |
| 2026-04-28 05:19 | -31.61650 | 115.80305 | 17028 ft | 386 kts | 2° |
| 2026-04-28 05:19 | -31.58959 | 115.80537 | 17636 ft | 389 kts | 2° |
| 2026-04-28 05:19 | -31.56245 | 115.80772 | 18226 ft | 393 kts | 2° |
| 2026-04-28 05:20 | -31.53507 | 115.81010 | 18765 ft | 396 kts | 2° |
| 2026-04-28 05:20 | -31.50748 | 115.81246 | 19326 ft | 399 kts | 1° |
| 2026-04-28 05:20 | -31.47970 | 115.81481 | 19867 ft | 401 kts | 1° |
| 2026-04-28 05:20 | -31.45173 | 115.81718 | 20396 ft | 405 kts | 1° |
| 2026-04-28 05:21 | -31.42354 | 115.81958 | 20912 ft | 407 kts | 1° |
| 2026-04-28 05:21 | -31.39520 | 115.82199 | 21424 ft | 409 kts | 1° |
| 2026-04-28 05:21 | -31.36670 | 115.82443 | 21906 ft | 412 kts | 1° |
| 2026-04-28 05:21 | -31.33817 | 115.82689 | 22375 ft | 414 kts | 1° |
| 2026-04-28 05:22 | -31.30939 | 115.82938 | 22842 ft | 416 kts | 1° |
| 2026-04-28 05:22 | -31.28046 | 115.83187 | 23295 ft | 418 kts | 1° |
| 2026-04-28 05:22 | -31.25140 | 115.83439 | 23719 ft | 420 kts | 1° |
| 2026-04-28 05:22 | -31.22219 | 115.83688 | 24085 ft | 422 kts | 1° |
| 2026-04-28 05:23 | -31.19285 | 115.83937 | 24450 ft | 423 kts | 1° |
| 2026-04-28 05:23 | -31.16340 | 115.84187 | 24814 ft | 425 kts | 1° |
| 2026-04-28 05:23 | -31.13384 | 115.84435 | 25167 ft | 427 kts | 1° |
| 2026-04-28 05:23 | -31.10416 | 115.84686 | 25521 ft | 428 kts | 1° |
| 2026-04-28 05:24 | -31.07437 | 115.84940 | 25866 ft | 430 kts | 1° |
| 2026-04-28 05:24 | -31.04445 | 115.85194 | 26214 ft | 432 kts | 2° |
| 2026-04-28 05:24 | -31.01441 | 115.85450 | 26556 ft | 434 kts | 2° |
| 2026-04-28 05:24 | -30.98414 | 115.85705 | 26902 ft | 435 kts | 1° |
| 2026-04-28 05:25 | -30.95393 | 115.85962 | 27333 ft | 438 kts | 1° |
| 2026-04-28 05:25 | -30.92344 | 115.86221 | 27855 ft | 440 kts | 1° |
| 2026-04-28 05:25 | -30.89307 | 115.86481 | 28537 ft | 436 kts | 1° |
| 2026-04-28 05:25 | -30.86292 | 115.86740 | 29055 ft | 433 kts | 1° |
| 2026-04-28 05:26 | -30.83278 | 115.86998 | 29534 ft | 432 kts | 1° |
| 2026-04-28 05:26 | -30.80285 | 115.87252 | 30038 ft | 430 kts | 1° |
| 2026-04-28 05:26 | -30.77303 | 115.87503 | 30467 ft | 429 kts | 1° |
| 2026-04-28 05:26 | -30.74366 | 115.87749 | 30889 ft | 427 kts | 1° |
| 2026-04-28 05:27 | -30.71410 | 115.87997 | 31329 ft | 425 kts | 1° |
| 2026-04-28 05:27 | -30.68467 | 115.88245 | 31767 ft | 423 kts | 1° |
| 2026-04-28 05:27 | -30.65539 | 115.88493 | 32214 ft | 421 kts | 1° |
| 2026-04-28 05:27 | -30.62624 | 115.88738 | 32665 ft | 419 kts | 1° |
| 2026-04-28 05:28 | -30.59723 | 115.88981 | 33131 ft | 417 kts | 1° |
| 2026-04-28 05:28 | -30.56837 | 115.89223 | 33599 ft | 415 kts | 1° |
| 2026-04-28 05:28 | -30.53966 | 115.89466 | 34064 ft | 413 kts | 1° |
| 2026-04-28 05:28 | -30.51107 | 115.89711 | 34427 ft | 411 kts | 1° |
| 2026-04-28 05:29 | -30.48252 | 115.89956 | 34739 ft | 411 kts | 0° |
| 2026-04-28 05:29 | -30.45397 | 115.90196 | 35048 ft | 411 kts | 0° |
| 2026-04-28 05:29 | -30.42539 | 115.90435 | 35304 ft | 412 kts | 0° |
| 2026-04-28 05:29 | -30.39679 | 115.90671 | 35573 ft | 412 kts | 360° |
| 2026-04-28 05:30 | -30.36816 | 115.90905 | 35833 ft | 412 kts | 359° |
| 2026-04-28 05:30 | -30.33952 | 115.91140 | 36089 ft | 413 kts | 359° |
| 2026-04-28 05:30 | -30.31085 | 115.91374 | 36335 ft | 413 kts | 359° |
| 2026-04-28 05:30 | -30.28216 | 115.91611 | 36579 ft | 413 kts | 359° |
| 2026-04-28 05:31 | -30.25344 | 115.91849 | 36818 ft | 414 kts | 359° |
| 2026-04-28 05:31 | -30.22469 | 115.92091 | 37004 ft | 415 kts | 359° |
| 2026-04-28 05:31 | -30.16653 | 115.92584 | 37035 ft | 423 kts | 358° |
| 2026-04-28 05:32 | -30.10781 | 115.93076 | 37053 ft | 426 kts | 358° |
| 2026-04-28 05:32 | -30.04858 | 115.93568 | 37049 ft | 427 kts | 358° |
| 2026-04-28 05:33 | -29.98893 | 115.94061 | 37049 ft | 427 kts | 358° |
| 2026-04-28 05:33 | -29.92995 | 115.94549 | 37051 ft | 427 kts | 358° |
| 2026-04-28 05:34 | -29.87057 | 115.95053 | 37027 ft | 428 kts | 359° |
| 2026-04-28 05:34 | -29.81112 | 115.95552 | 37051 ft | 428 kts | 357° |
| 2026-04-28 05:35 | -29.75162 | 115.96033 | 37050 ft | 429 kts | 357° |
| 2026-04-28 05:35 | -29.69199 | 115.96525 | 37045 ft | 429 kts | 357° |
| 2026-04-28 05:36 | -29.63249 | 115.97018 | 37042 ft | 428 kts | 357° |
| 2026-04-28 05:36 | -29.57297 | 115.97509 | 37049 ft | 429 kts | 357° |
| 2026-04-28 05:37 | -29.51340 | 115.97999 | 37050 ft | 429 kts | 357° |
| 2026-04-28 05:37 | -29.45370 | 115.98483 | 37049 ft | 429 kts | 357° |
| 2026-04-28 05:38 | -29.39406 | 115.98970 | 37052 ft | 430 kts | 357° |
| 2026-04-28 05:38 | -29.33440 | 115.99461 | 37038 ft | 430 kts | 357° |
| 2026-04-28 05:39 | -29.27522 | 115.99958 | 37040 ft | 429 kts | 357° |
| 2026-04-28 05:39 | -29.21548 | 116.00446 | 37044 ft | 429 kts | 357° |
| 2026-04-28 05:40 | -29.15585 | 116.00926 | 37043 ft | 429 kts | 357° |
| 2026-04-28 05:40 | -29.09624 | 116.01408 | 37016 ft | 429 kts | 357° |
| 2026-04-28 05:41 | -29.03661 | 116.01892 | 37014 ft | 430 kts | 357° |
| 2026-04-28 05:41 | -28.97727 | 116.02378 | 37019 ft | 430 kts | 357° |
| 2026-04-28 05:42 | -28.91722 | 116.02880 | 37020 ft | 430 kts | 357° |
| 2026-04-28 05:42 | -28.85746 | 116.03369 | 36979 ft | 431 kts | 357° |
| 2026-04-28 05:43 | -28.79768 | 116.03852 | 36995 ft | 431 kts | 357° |
| 2026-04-28 05:43 | -28.73833 | 116.04327 | 36997 ft | 431 kts | 357° |
| 2026-04-28 05:44 | -28.67852 | 116.04812 | 37002 ft | 431 kts | 357° |
| 2026-04-28 05:44 | -28.61872 | 116.05302 | 36994 ft | 431 kts | 357° |
| 2026-04-28 05:45 | -28.55882 | 116.05780 | 36977 ft | 430 kts | 356° |
| 2026-04-28 05:45 | -28.49902 | 116.06262 | 36982 ft | 431 kts | 356° |
| 2026-04-28 05:46 | -28.43919 | 116.06743 | 36989 ft | 431 kts | 356° |
| 2026-04-28 05:46 | -28.38904 | 116.07147 | 36985 ft | 431 kts | 356° |
| 2026-04-28 05:47 | -28.32952 | 116.07622 | 36988 ft | 431 kts | 356° |
| 2026-04-28 05:47 | -28.26978 | 116.08102 | 36957 ft | 431 kts | 356° |
| 2026-04-28 05:48 | -28.20993 | 116.08587 | 36965 ft | 431 kts | 356° |
| 2026-04-28 05:48 | -28.14995 | 116.09072 | 36972 ft | 431 kts | 356° |
| 2026-04-28 05:49 | -28.09006 | 116.09553 | 36969 ft | 431 kts | 356° |
| 2026-04-28 05:49 | -28.03016 | 116.10029 | 36971 ft | 431 kts | 356° |
| 2026-04-28 05:50 | -27.97025 | 116.10505 | 36966 ft | 431 kts | 356° |
| 2026-04-28 05:50 | -27.91034 | 116.10981 | 36966 ft | 432 kts | 356° |
| 2026-04-28 05:51 | -27.85041 | 116.11462 | 36958 ft | 432 kts | 356° |
| 2026-04-28 05:51 | -27.79049 | 116.11948 | 36956 ft | 432 kts | 356° |
| 2026-04-28 05:52 | -27.73055 | 116.12426 | 36915 ft | 432 kts | 356° |
| 2026-04-28 05:52 | -27.67052 | 116.12887 | 36916 ft | 432 kts | 355° |
| 2026-04-28 05:53 | -27.61047 | 116.13286 | 36925 ft | 432 kts | 355° |
| 2026-04-28 05:53 | -27.55038 | 116.13670 | 36929 ft | 433 kts | 355° |
| 2026-04-28 05:54 | -27.49014 | 116.14063 | 36905 ft | 433 kts | 355° |
| 2026-04-28 05:54 | -27.43033 | 116.14465 | 36915 ft | 433 kts | 355° |
| 2026-04-28 05:55 | -27.37016 | 116.14875 | 36926 ft | 433 kts | 355° |
| 2026-04-28 05:55 | -27.31009 | 116.15282 | 36928 ft | 433 kts | 355° |
| 2026-04-28 05:56 | -27.24979 | 116.15690 | 36929 ft | 433 kts | 355° |
| 2026-04-28 05:56 | -27.18972 | 116.16081 | 36894 ft | 433 kts | 355° |
| 2026-04-28 05:57 | -27.12936 | 116.16473 | 36904 ft | 434 kts | 355° |
| 2026-04-28 05:57 | -27.06907 | 116.16878 | 36913 ft | 434 kts | 355° |
| 2026-04-28 05:58 | -27.00875 | 116.17281 | 36920 ft | 434 kts | 355° |
| 2026-04-28 05:58 | -26.94829 | 116.17685 | 36893 ft | 434 kts | 355° |
| 2026-04-28 05:59 | -26.88805 | 116.18087 | 36906 ft | 434 kts | 355° |
| 2026-04-28 05:59 | -26.82755 | 116.18483 | 36914 ft | 435 kts | 355° |
| 2026-04-28 06:00 | -26.76714 | 116.18884 | 36919 ft | 435 kts | 355° |
| 2026-04-28 06:00 | -26.70707 | 116.19281 | 36924 ft | 435 kts | 355° |
| 2026-04-28 06:01 | -26.64664 | 116.19675 | 36898 ft | 435 kts | 355° |
| 2026-04-28 06:01 | -26.58615 | 116.20084 | 36904 ft | 436 kts | 355° |
| 2026-04-28 06:02 | -26.52561 | 116.20492 | 36920 ft | 436 kts | 355° |
| 2026-04-28 06:02 | -26.46505 | 116.20883 | 36924 ft | 436 kts | 355° |
| 2026-04-28 06:03 | -26.40446 | 116.21283 | 36915 ft | 436 kts | 355° |
| 2026-04-28 06:03 | -26.34383 | 116.21680 | 36892 ft | 436 kts | 355° |
| 2026-04-28 06:04 | -26.28303 | 116.22072 | 36900 ft | 437 kts | 355° |
| 2026-04-28 06:04 | -26.22241 | 116.22474 | 36906 ft | 437 kts | 355° |
| 2026-04-28 06:05 | -26.16165 | 116.22876 | 36911 ft | 437 kts | 355° |
| 2026-04-28 06:05 | -26.10086 | 116.23271 | 36892 ft | 438 kts | 355° |
| 2026-04-28 06:06 | -26.04004 | 116.23665 | 36899 ft | 438 kts | 355° |
| 2026-04-28 06:06 | -25.97917 | 116.24066 | 36907 ft | 438 kts | 355° |
| 2026-04-28 06:07 | -25.91827 | 116.24474 | 36913 ft | 438 kts | 355° |
| 2026-04-28 06:07 | -25.85736 | 116.24876 | 36917 ft | 438 kts | 355° |
| 2026-04-28 06:08 | -25.79642 | 116.25271 | 36887 ft | 439 kts | 355° |
| 2026-04-28 06:08 | -25.73542 | 116.25664 | 36897 ft | 439 kts | 354° |
| 2026-04-28 06:09 | -25.67434 | 116.26046 | 36895 ft | 440 kts | 355° |
| 2026-04-28 06:09 | -25.61325 | 116.26441 | 36914 ft | 440 kts | 355° |
| 2026-04-28 06:10 | -25.55218 | 116.26844 | 36897 ft | 439 kts | 355° |
| 2026-04-28 06:10 | -25.49158 | 116.27251 | 36897 ft | 439 kts | 355° |
| 2026-04-28 06:11 | -25.43052 | 116.27651 | 36910 ft | 439 kts | 355° |
| 2026-04-28 06:11 | -25.36945 | 116.28037 | 36922 ft | 439 kts | 355° |
| 2026-04-28 06:12 | -25.30836 | 116.28427 | 36922 ft | 440 kts | 355° |
| 2026-04-28 06:12 | -25.24727 | 116.28822 | 36925 ft | 440 kts | 355° |
| 2026-04-28 06:13 | -25.18618 | 116.29214 | 36929 ft | 440 kts | 355° |
| 2026-04-28 06:13 | -25.12508 | 116.29609 | 36928 ft | 440 kts | 355° |
| 2026-04-28 06:14 | -25.06398 | 116.30005 | 36928 ft | 440 kts | 355° |
| 2026-04-28 06:14 | -25.00288 | 116.30396 | 36929 ft | 440 kts | 355° |
| 2026-04-28 06:15 | -24.94176 | 116.30783 | 36909 ft | 440 kts | 355° |
| 2026-04-28 06:15 | -24.88062 | 116.31173 | 36916 ft | 440 kts | 355° |
| 2026-04-28 06:16 | -24.81946 | 116.31566 | 36921 ft | 440 kts | 355° |
| 2026-04-28 06:16 | -24.75827 | 116.31961 | 36925 ft | 440 kts | 355° |
| 2026-04-28 06:17 | -24.69707 | 116.32358 | 36894 ft | 440 kts | 355° |
| 2026-04-28 06:18 | -24.60529 | 116.32927 | 36915 ft | 440 kts | 355° |
| 2026-04-28 06:18 | -24.54407 | 116.33323 | 36924 ft | 441 kts | 355° |
| 2026-04-28 06:19 | -24.48284 | 116.33719 | 36928 ft | 441 kts | 355° |
| 2026-04-28 06:19 | -24.42196 | 116.34104 | 36934 ft | 441 kts | 355° |
| 2026-04-28 06:20 | -24.36072 | 116.34492 | 36913 ft | 441 kts | 355° |
| 2026-04-28 06:20 | -24.29944 | 116.34881 | 36928 ft | 441 kts | 355° |
| 2026-04-28 06:21 | -24.23813 | 116.35275 | 36935 ft | 441 kts | 355° |
| 2026-04-28 06:21 | -24.17680 | 116.35671 | 36941 ft | 441 kts | 355° |
| 2026-04-28 06:22 | -24.11534 | 116.36065 | 36920 ft | 441 kts | 355° |
| 2026-04-28 06:22 | -24.05401 | 116.36445 | 36931 ft | 441 kts | 355° |
| 2026-04-28 06:23 | -23.99268 | 116.36825 | 36934 ft | 441 kts | 355° |
| 2026-04-28 06:23 | -23.93121 | 116.37212 | 36938 ft | 441 kts | 355° |
| 2026-04-28 06:24 | -23.86999 | 116.37600 | 36943 ft | 441 kts | 355° |
| 2026-04-28 06:24 | -23.80890 | 116.37977 | 36918 ft | 440 kts | 355° |
| 2026-04-28 06:25 | -23.74778 | 116.38149 | 36934 ft | 438 kts | 353° |
| 2026-04-28 06:25 | -23.69682 | 116.38198 | 36940 ft | 438 kts | 353° |
| 2026-04-28 06:26 | -23.62596 | 116.38286 | 36944 ft | 438 kts | 353° |
| 2026-04-28 06:26 | -23.56496 | 116.38408 | 36942 ft | 438 kts | 353° |
| 2026-04-28 06:27 | -23.50401 | 116.38542 | 36932 ft | 438 kts | 353° |
| 2026-04-28 06:27 | -23.45334 | 116.38653 | 36932 ft | 437 kts | 353° |
| 2026-04-28 06:28 | -23.39252 | 116.38778 | 36938 ft | 437 kts | 353° |
| 2026-04-28 06:28 | -23.33176 | 116.38900 | 36931 ft | 436 kts | 353° |
| 2026-04-28 06:29 | -23.27102 | 116.39025 | 36929 ft | 436 kts | 353° |
| 2026-04-28 06:29 | -23.21001 | 116.39148 | 36916 ft | 436 kts | 353° |
| 2026-04-28 06:30 | -23.14987 | 116.39272 | 36922 ft | 435 kts | 353° |
| 2026-04-28 06:30 | -23.08933 | 116.39404 | 36922 ft | 435 kts | 353° |
| 2026-04-28 06:31 | -23.02882 | 116.39525 | 36923 ft | 435 kts | 353° |
| 2026-04-28 06:31 | -22.96834 | 116.39642 | 36904 ft | 435 kts | 353° |
| 2026-04-28 06:32 | -22.90788 | 116.39768 | 36909 ft | 434 kts | 353° |
| 2026-04-28 06:32 | -22.84710 | 116.39893 | 36917 ft | 434 kts | 353° |
| 2026-04-28 06:33 | -22.78667 | 116.40018 | 36920 ft | 434 kts | 353° |
| 2026-04-28 06:33 | -22.72672 | 116.40145 | 36922 ft | 434 kts | 353° |
| 2026-04-28 06:34 | -22.66586 | 116.40265 | 36906 ft | 434 kts | 353° |
| 2026-04-28 06:34 | -22.60590 | 116.40381 | 36921 ft | 434 kts | 353° |
| 2026-04-28 06:35 | -22.54546 | 116.40507 | 36930 ft | 434 kts | 353° |
| 2026-04-28 06:35 | -22.48500 | 116.40641 | 36933 ft | 434 kts | 353° |
| 2026-04-28 06:36 | -22.42422 | 116.40769 | 36930 ft | 434 kts | 353° |
| 2026-04-28 06:36 | -22.36384 | 116.40883 | 36929 ft | 434 kts | 353° |
| 2026-04-28 06:37 | -22.30346 | 116.40993 | 36926 ft | 434 kts | 353° |
| 2026-04-28 06:37 | -22.24353 | 116.41114 | 36103 ft | 434 kts | 353° |
| 2026-04-28 06:37 | -22.21332 | 116.41180 | 35323 ft | 429 kts | 353° |
| 2026-04-28 06:38 | -22.18368 | 116.41248 | 34616 ft | 423 kts | 354° |
| 2026-04-28 06:38 | -22.15424 | 116.41310 | 33890 ft | 425 kts | 354° |
| 2026-04-28 06:38 | -22.12440 | 116.41365 | 32973 ft | 433 kts | 354° |
| 2026-04-28 06:38 | -22.09425 | 116.41420 | 32475 ft | 435 kts | 354° |
| 2026-04-28 06:39 | -22.06361 | 116.41475 | 31442 ft | 446 kts | 354° |
| 2026-04-28 06:39 | -22.03230 | 116.41531 | 30510 ft | 453 kts | 354° |
| 2026-04-28 06:39 | -22.00046 | 116.41591 | 29413 ft | 462 kts | 354° |
| 2026-04-28 06:39 | -21.96814 | 116.41655 | 28314 ft | 467 kts | 355° |
| 2026-04-28 06:40 | -21.93549 | 116.41726 | 27230 ft | 471 kts | 355° |
| 2026-04-28 06:40 | -21.90268 | 116.41801 | 26444 ft | 468 kts | 355° |
| 2026-04-28 06:40 | -21.87035 | 116.41878 | 25756 ft | 463 kts | 356° |
| 2026-04-28 06:40 | -21.83808 | 116.41952 | 24991 ft | 460 kts | 356° |
| 2026-04-28 06:41 | -21.80618 | 116.42021 | 24239 ft | 458 kts | 356° |
| 2026-04-28 06:41 | -21.77436 | 116.42084 | 23493 ft | 455 kts | 356° |
| 2026-04-28 06:41 | -21.74282 | 116.42144 | 22672 ft | 452 kts | 356° |
| 2026-04-28 06:41 | -21.71196 | 116.42204 | 21961 ft | 446 kts | 356° |
| 2026-04-28 06:42 | -21.68112 | 116.42264 | 21238 ft | 441 kts | 356° |
| 2026-04-28 06:42 | -21.65062 | 116.42324 | 20534 ft | 436 kts | 356° |
| 2026-04-28 06:42 | -21.62004 | 116.42384 | 19830 ft | 431 kts | 356° |
| 2026-04-28 06:42 | -21.59021 | 116.42443 | 19176 ft | 427 kts | 356° |
| 2026-04-28 06:43 | -21.56067 | 116.42502 | 18541 ft | 423 kts | 357° |
| 2026-04-28 06:43 | -21.53133 | 116.42561 | 17879 ft | 419 kts | 357° |
| 2026-04-28 06:43 | -21.50237 | 116.42620 | 17252 ft | 414 kts | 357° |
| 2026-04-28 06:43 | -21.47375 | 116.42679 | 16670 ft | 410 kts | 358° |
| 2026-04-28 06:44 | -21.44569 | 116.42737 | 16079 ft | 407 kts | 358° |
| 2026-04-28 06:44 | -21.41754 | 116.42793 | 15474 ft | 404 kts | 358° |
| 2026-04-28 06:44 | -21.38957 | 116.42967 | 14860 ft | 404 kts | 5° |
| 2026-04-28 06:44 | -21.36200 | 116.43547 | 13898 ft | 400 kts | 9° |
| 2026-04-28 06:45 | -21.33521 | 116.44184 | 12853 ft | 390 kts | 10° |
| 2026-04-28 06:45 | -21.30935 | 116.44817 | 12280 ft | 369 kts | 11° |
| 2026-04-28 06:45 | -21.28540 | 116.45410 | 12124 ft | 339 kts | 11° |
| 2026-04-28 06:45 | -21.26323 | 116.45958 | 11946 ft | 315 kts | 11° |
| 2026-04-28 06:46 | -21.24224 | 116.46469 | 11454 ft | 306 kts | 11° |
| 2026-04-28 06:46 | -21.22168 | 116.46964 | 10866 ft | 301 kts | 10° |
| 2026-04-28 06:46 | -21.20120 | 116.47455 | 9992 ft | 307 kts | 12° |
| 2026-04-28 06:46 | -21.18030 | 116.47950 | 9602 ft | 302 kts | 12° |
| 2026-04-28 06:47 | -21.16013 | 116.48430 | 9474 ft | 293 kts | 12° |
| 2026-04-28 06:47 | -21.14040 | 116.48900 | 9334 ft | 290 kts | 12° |
| 2026-04-28 06:47 | -21.12079 | 116.49368 | 9009 ft | 288 kts | 12° |
| 2026-04-28 06:47 | -21.10122 | 116.49838 | 8657 ft | 287 kts | 12° |
| 2026-04-28 06:48 | -21.08185 | 116.50302 | 8306 ft | 285 kts | 13° |
| 2026-04-28 06:48 | -21.06242 | 116.50767 | 7881 ft | 287 kts | 13° |
| 2026-04-28 06:48 | -21.04297 | 116.51231 | 7481 ft | 286 kts | 13° |
| 2026-04-28 06:48 | -21.02351 | 116.51697 | 7111 ft | 286 kts | 13° |
| 2026-04-28 06:49 | -21.00412 | 116.52161 | 6732 ft | 285 kts | 14° |
| 2026-04-28 06:49 | -20.98476 | 116.52624 | 6354 ft | 285 kts | 14° |
| 2026-04-28 06:49 | -20.96574 | 116.53078 | 5961 ft | 273 kts | 14° |
| 2026-04-28 06:49 | -20.94755 | 116.53509 | 5599 ft | 261 kts | 14° |
| 2026-04-28 06:50 | -20.93020 | 116.53921 | 5259 ft | 250 kts | 14° |
| 2026-04-28 06:50 | -20.91359 | 116.54318 | 4938 ft | 240 kts | 14° |
| 2026-04-28 06:50 | -20.89768 | 116.54700 | 4621 ft | 229 kts | 14° |
| 2026-04-28 06:50 | -20.88249 | 116.55063 | 4325 ft | 218 kts | 14° |
| 2026-04-28 06:51 | -20.86805 | 116.55408 | 4035 ft | 209 kts | 14° |
| 2026-04-28 06:51 | -20.85394 | 116.55744 | 3757 ft | 208 kts | 14° |
| 2026-04-28 06:51 | -20.83983 | 116.56079 | 3480 ft | 208 kts | 14° |
| 2026-04-28 06:51 | -20.82561 | 116.56419 | 3204 ft | 209 kts | 14° |
| 2026-04-28 06:52 | -20.81153 | 116.56754 | 2995 ft | 204 kts | 13° |
| 2026-04-28 06:52 | -20.79803 | 116.57090 | 2952 ft | 196 kts | 14° |
| 2026-04-28 06:52 | -20.78534 | 116.57414 | 2984 ft | 178 kts | 15° |
| 2026-04-28 06:52 | -20.77379 | 116.57714 | 2950 ft | 163 kts | 15° |
| 2026-04-28 06:53 | -20.76327 | 116.57987 | 2953 ft | 150 kts | 16° |
| 2026-04-28 06:53 | -20.75339 | 116.58243 | 2956 ft | 146 kts | 15° |
| 2026-04-28 06:53 | -20.74378 | 116.58562 | 2937 ft | 143 kts | 30° |
| 2026-04-28 06:53 | -20.73609 | 116.59227 | 2958 ft | 143 kts | 51° |
| 2026-04-28 06:54 | -20.73145 | 116.60157 | 2975 ft | 143 kts | 73° |
| 2026-04-28 06:54 | -20.73004 | 116.61206 | 2999 ft | 143 kts | 81° |
| 2026-04-28 06:54 | -20.72897 | 116.62243 | 2926 ft | 140 kts | 81° |
| 2026-04-28 06:54 | -20.72786 | 116.63272 | 2776 ft | 140 kts | 82° |
| 2026-04-28 06:55 | -20.72681 | 116.64302 | 2635 ft | 140 kts | 81° |
| 2026-04-28 06:55 | -20.72581 | 116.65334 | 2436 ft | 138 kts | 82° |
| 2026-04-28 06:55 | -20.72486 | 116.66364 | 2260 ft | 139 kts | 83° |
| 2026-04-28 06:55 | -20.72390 | 116.67394 | 2057 ft | 139 kts | 82° |
| 2026-04-28 06:56 | -20.72259 | 116.68420 | 1847 ft | 140 kts | 79° |
| 2026-04-28 06:56 | -20.72112 | 116.69439 | 1629 ft | 138 kts | 81° |
| 2026-04-28 06:56 | -20.71978 | 116.70460 | 1427 ft | 139 kts | 82° |
| 2026-04-28 06:56 | -20.71883 | 116.71493 | 1277 ft | 140 kts | 82° |
| 2026-04-28 06:57 | -20.71793 | 116.72530 | 1114 ft | 140 kts | 82° |
| 2026-04-28 06:57 | -20.71721 | 116.73570 | 891 ft | 139 kts | 81° |
| 2026-04-28 06:57 | -20.71623 | 116.74610 | 689 ft | 142 kts | 71° |
| 2026-04-28 06:57 | -20.71479 | 116.75652 | 410 ft | 142 kts | 78° |
| 2026-04-28 06:58 | -20.71379 | 116.76690 | 80 ft | 140 kts | 75° |
| 2026-04-28 06:58 | -20.71282 | 116.77542 | 36 ft | 79 kts | 82° |
| 2026-04-28 06:58 | -20.71257 | 116.77809 | 36 ft | 1 kts | 85° |
| 2026-04-28 06:58 | -20.71250 | 116.77903 | 38 ft | 19 kts | 84° |
| 2026-04-28 06:59 | -20.71237 | 116.78040 | 38 ft | 15 kts | 84° |
| 2026-04-28 06:59 | -20.71225 | 116.78142 | 37 ft | 10 kts | 76° |
| 2026-04-28 06:59 | -20.71164 | 116.78189 | 37 ft | 13 kts | 3° |
| 2026-04-28 06:59 | -20.71072 | 116.78172 | 35 ft | 13 kts | 330° |
| 2026-04-28 07:00 | -20.71052 | 116.78072 | 35 ft | 16 kts | 265° |
| 2026-04-28 07:00 | -20.71064 | 116.77951 | 34 ft | 16 kts | 263° |
| 2026-04-28 07:00 | -20.71076 | 116.77837 | 35 ft | 16 kts | 263° |
| 2026-04-28 07:00 | -20.71086 | 116.77734 | 33 ft | 14 kts | 264° |
| 2026-04-28 07:01 | -20.71097 | 116.77623 | 35 ft | 16 kts | 264° |
| 2026-04-28 07:01 | -20.71110 | 116.77492 | 34 ft | 19 kts | 264° |
| 2026-04-28 07:01 | -20.71125 | 116.77345 | 34 ft | 16 kts | 263° |
| 2026-04-28 07:01 | -20.71128 | 116.77256 | 34 ft | 10 kts | 292° |
| 2026-04-28 07:02 | -20.71066 | 116.77228 | 34 ft | 6 kts | 350° |
| 2026-04-28 07:02 | -20.71026 | 116.77198 | 34 ft | 9 kts | 293° |
| 2026-04-28 07:02 | -20.71028 | 116.77126 | 34 ft | 11 kts | 271° |
| 2026-04-28 07:02 | -20.71030 | 116.77054 | 34 ft | 8 kts | 282° |
| 2026-04-28 07:03 | -20.71004 | 116.76998 | 34 ft | 8 kts | 298° |
| 2026-04-28 07:03 | -20.70997 | 116.76944 | 34 ft | 3 kts | 278° |
| 2026-04-28 07:03 | -20.70982 | 116.76941 | 34 ft | 3 kts | 7° |
| 2026-04-28 07:03 | -20.70961 | 116.76950 | 34 ft | 3 kts | 27° |
| 2026-04-28 07:04 | -20.70955 | 116.76954 | 34 ft | 1 kts | 28° |
| 2026-04-28 07:04 | -20.70950 | 116.76956 | 34 ft | 0 kts | 28° |